<?xml version="1.0" encoding="UTF-8" standalone="no" ?>
<gpx xmlns="http://www.topografix.com/GPX/1/1" xmlns:xsi="http://www.w3.org/2001/XMLSchema-instance" xsi:schemaLocation="http://www.topografix.com/GPX/1/1 http://www.topografix.com/GPX/1/1/gpx.xsd" version="1.1" creator="VisuGPX - https://www.visugpx.com">
  <metadata>
    <name>Raid Bulles : Barsuraubois</name>
    <desc><![CDATA[parcours RAID BULLES EN CHAMPAGNE 375KM]]></desc>
  </metadata>
  <wpt lat="48.1461" lon="4.76948">
    <ele>206.1</ele>
    <name><![CDATA[Ravitaillement chaud]]></name>
  </wpt>
  <wpt lat="48.14803" lon="4.83346">
    <ele>208.6</ele>
    <name><![CDATA[Départ réel]]></name>
  </wpt>
  <wpt lat="48.13585" lon="4.66919">
    <ele>253.9</ele>
    <name><![CDATA[Gravel début section]]></name>
  </wpt>
  <wpt lat="48.21735" lon="4.71382">
    <ele>168.8</ele>
  </wpt>
  <trk>
    <name><![CDATA[49. Circuit de la Barsurauboise-17237781]]></name>
    <extensions>
      <line xmlns="http://www.topografix.com/GPX/gpx_style/0/2">
        <color>00FFFF</color>
        <width>4</width>
      </line>
    </extensions>
    <trkseg>
      <trkpt lat="48.2333" lon="4.70644">
        <ele>170</ele>
        <time>2024-07-03T08:06:24Z</time>
      </trkpt>
      <trkpt lat="48.23317" lon="4.70664">
        <ele>170</ele>
        <time>2024-07-03T08:06:27Z</time>
      </trkpt>
      <trkpt lat="48.23303" lon="4.70692">
        <ele>170</ele>
        <time>2024-07-03T08:06:31Z</time>
      </trkpt>
      <trkpt lat="48.2335" lon="4.70738">
        <ele>169</ele>
        <time>2024-07-03T08:06:41Z</time>
      </trkpt>
      <trkpt lat="48.23362" lon="4.70707">
        <ele>169</ele>
        <time>2024-07-03T08:06:46Z</time>
      </trkpt>
      <trkpt lat="48.23395" lon="4.70741">
        <ele>168</ele>
        <time>2024-07-03T08:06:53Z</time>
      </trkpt>
      <trkpt lat="48.23411" lon="4.70749">
        <ele>167</ele>
        <time>2024-07-03T08:06:56Z</time>
      </trkpt>
      <trkpt lat="48.23457" lon="4.70749">
        <ele>166</ele>
        <time>2024-07-03T08:07:04Z</time>
      </trkpt>
      <trkpt lat="48.23461" lon="4.70683">
        <ele>166</ele>
        <time>2024-07-03T08:07:12Z</time>
      </trkpt>
      <trkpt lat="48.23465" lon="4.70655">
        <ele>165</ele>
        <time>2024-07-03T08:07:15Z</time>
      </trkpt>
      <trkpt lat="48.23476" lon="4.70617">
        <ele>165</ele>
        <time>2024-07-03T08:07:20Z</time>
      </trkpt>
      <trkpt lat="48.23491" lon="4.70582">
        <ele>164</ele>
        <time>2024-07-03T08:07:25Z</time>
      </trkpt>
      <trkpt lat="48.23516" lon="4.70512">
        <ele>164</ele>
        <time>2024-07-03T08:07:35Z</time>
      </trkpt>
      <trkpt lat="48.23594" lon="4.70604">
        <ele>163</ele>
        <time>2024-07-03T08:07:52Z</time>
      </trkpt>
      <trkpt lat="48.23611" lon="4.7062">
        <ele>164</ele>
        <time>2024-07-03T08:07:56Z</time>
      </trkpt>
      <trkpt lat="48.23715" lon="4.70699">
        <ele>164</ele>
        <time>2024-07-03T08:08:16Z</time>
      </trkpt>
      <trkpt lat="48.23741" lon="4.70722">
        <ele>164</ele>
        <time>2024-07-03T08:08:22Z</time>
      </trkpt>
      <trkpt lat="48.23747" lon="4.70724">
        <ele>164</ele>
        <time>2024-07-03T08:08:23Z</time>
      </trkpt>
      <trkpt lat="48.23766" lon="4.70746">
        <ele>164</ele>
        <time>2024-07-03T08:08:27Z</time>
      </trkpt>
      <trkpt lat="48.23779" lon="4.70769">
        <ele>163</ele>
        <time>2024-07-03T08:08:31Z</time>
      </trkpt>
      <trkpt lat="48.23777" lon="4.70774">
        <ele>163</ele>
        <time>2024-07-03T08:08:31Z</time>
      </trkpt>
      <trkpt lat="48.23779" lon="4.70769">
        <ele>163</ele>
        <time>2024-07-03T08:08:32Z</time>
      </trkpt>
      <trkpt lat="48.23803" lon="4.70839">
        <ele>162</ele>
        <time>2024-07-03T08:08:41Z</time>
      </trkpt>
      <trkpt lat="48.23825" lon="4.70925">
        <ele>161</ele>
        <time>2024-07-03T08:08:52Z</time>
      </trkpt>
      <trkpt lat="48.23834" lon="4.70944">
        <ele>161</ele>
        <time>2024-07-03T08:08:55Z</time>
      </trkpt>
      <trkpt lat="48.23929" lon="4.71073">
        <ele>161</ele>
        <time>2024-07-03T08:09:18Z</time>
      </trkpt>
      <trkpt lat="48.23937" lon="4.7108">
        <ele>161</ele>
        <time>2024-07-03T08:09:20Z</time>
      </trkpt>
      <trkpt lat="48.23964" lon="4.71157">
        <ele>165</ele>
        <time>2024-07-03T08:09:30Z</time>
      </trkpt>
      <trkpt lat="48.24265" lon="4.71446">
        <ele>186</ele>
        <time>2024-07-03T08:10:33Z</time>
      </trkpt>
      <trkpt lat="48.24328" lon="4.71484">
        <ele>190</ele>
        <time>2024-07-03T08:10:46Z</time>
      </trkpt>
      <trkpt lat="48.24359" lon="4.71509">
        <ele>192</ele>
        <time>2024-07-03T08:10:52Z</time>
      </trkpt>
      <trkpt lat="48.24616" lon="4.71814">
        <ele>211</ele>
        <time>2024-07-03T08:11:50Z</time>
      </trkpt>
      <trkpt lat="48.24644" lon="4.71841">
        <ele>213</ele>
        <time>2024-07-03T08:11:56Z</time>
      </trkpt>
      <trkpt lat="48.24729" lon="4.71938">
        <ele>216</ele>
        <time>2024-07-03T08:12:15Z</time>
      </trkpt>
      <trkpt lat="48.24774" lon="4.71985">
        <ele>220</ele>
        <time>2024-07-03T08:12:25Z</time>
      </trkpt>
      <trkpt lat="48.24822" lon="4.72016">
        <ele>224</ele>
        <time>2024-07-03T08:12:34Z</time>
      </trkpt>
      <trkpt lat="48.24888" lon="4.72026">
        <ele>232</ele>
        <time>2024-07-03T08:12:46Z</time>
      </trkpt>
      <trkpt lat="48.24932" lon="4.72068">
        <ele>240</ele>
        <time>2024-07-03T08:12:55Z</time>
      </trkpt>
      <trkpt lat="48.24936" lon="4.72083">
        <ele>241</ele>
        <time>2024-07-03T08:12:57Z</time>
      </trkpt>
      <trkpt lat="48.24935" lon="4.72116">
        <ele>243</ele>
        <time>2024-07-03T08:13:01Z</time>
      </trkpt>
      <trkpt lat="48.24945" lon="4.72121">
        <ele>245</ele>
        <time>2024-07-03T08:13:03Z</time>
      </trkpt>
      <trkpt lat="48.24967" lon="4.72164">
        <ele>251</ele>
        <time>2024-07-03T08:13:09Z</time>
      </trkpt>
      <trkpt lat="48.24977" lon="4.7219">
        <ele>255</ele>
        <time>2024-07-03T08:13:13Z</time>
      </trkpt>
      <trkpt lat="48.24982" lon="4.72206">
        <ele>256</ele>
        <time>2024-07-03T08:13:15Z</time>
      </trkpt>
      <trkpt lat="48.24989" lon="4.72284">
        <ele>261</ele>
        <time>2024-07-03T08:13:24Z</time>
      </trkpt>
      <trkpt lat="48.24993" lon="4.72302">
        <ele>262</ele>
        <time>2024-07-03T08:13:27Z</time>
      </trkpt>
      <trkpt lat="48.2503" lon="4.72383">
        <ele>269</ele>
        <time>2024-07-03T08:13:38Z</time>
      </trkpt>
      <trkpt lat="48.2506" lon="4.72412">
        <ele>272</ele>
        <time>2024-07-03T08:13:44Z</time>
      </trkpt>
      <trkpt lat="48.25108" lon="4.72444">
        <ele>276</ele>
        <time>2024-07-03T08:13:54Z</time>
      </trkpt>
      <trkpt lat="48.2512" lon="4.72446">
        <ele>277</ele>
        <time>2024-07-03T08:13:56Z</time>
      </trkpt>
      <trkpt lat="48.25143" lon="4.72886">
        <ele>275</ele>
        <time>2024-07-03T08:14:48Z</time>
      </trkpt>
      <trkpt lat="48.25152" lon="4.72959">
        <ele>273</ele>
        <time>2024-07-03T08:14:57Z</time>
      </trkpt>
      <trkpt lat="48.25173" lon="4.73015">
        <ele>274</ele>
        <time>2024-07-03T08:15:05Z</time>
      </trkpt>
      <trkpt lat="48.25212" lon="4.7307">
        <ele>273</ele>
        <time>2024-07-03T08:15:14Z</time>
      </trkpt>
      <trkpt lat="48.25231" lon="4.73085">
        <ele>273</ele>
        <time>2024-07-03T08:15:18Z</time>
      </trkpt>
      <trkpt lat="48.25258" lon="4.73118">
        <ele>274</ele>
        <time>2024-07-03T08:15:24Z</time>
      </trkpt>
      <trkpt lat="48.25287" lon="4.73159">
        <ele>274</ele>
        <time>2024-07-03T08:15:31Z</time>
      </trkpt>
      <trkpt lat="48.25321" lon="4.73192">
        <ele>272</ele>
        <time>2024-07-03T08:15:39Z</time>
      </trkpt>
      <trkpt lat="48.25381" lon="4.73225">
        <ele>270</ele>
        <time>2024-07-03T08:15:50Z</time>
      </trkpt>
      <trkpt lat="48.25456" lon="4.73331">
        <ele>258</ele>
        <time>2024-07-03T08:16:08Z</time>
      </trkpt>
      <trkpt lat="48.25499" lon="4.73284">
        <ele>260</ele>
        <time>2024-07-03T08:16:18Z</time>
      </trkpt>
      <trkpt lat="48.25522" lon="4.73278">
        <ele>260</ele>
        <time>2024-07-03T08:16:22Z</time>
      </trkpt>
      <trkpt lat="48.25537" lon="4.73281">
        <ele>259</ele>
        <time>2024-07-03T08:16:25Z</time>
      </trkpt>
      <trkpt lat="48.2556" lon="4.73306">
        <ele>256</ele>
        <time>2024-07-03T08:16:30Z</time>
      </trkpt>
      <trkpt lat="48.25646" lon="4.73449">
        <ele>232</ele>
        <time>2024-07-03T08:16:52Z</time>
      </trkpt>
      <trkpt lat="48.25649" lon="4.73486">
        <ele>229</ele>
        <time>2024-07-03T08:16:57Z</time>
      </trkpt>
      <trkpt lat="48.25667" lon="4.73541">
        <ele>225</ele>
        <time>2024-07-03T08:17:04Z</time>
      </trkpt>
      <trkpt lat="48.25701" lon="4.73594">
        <ele>224</ele>
        <time>2024-07-03T08:17:13Z</time>
      </trkpt>
      <trkpt lat="48.25716" lon="4.73607">
        <ele>223</ele>
        <time>2024-07-03T08:17:16Z</time>
      </trkpt>
      <trkpt lat="48.25722" lon="4.73594">
        <ele>224</ele>
        <time>2024-07-03T08:17:18Z</time>
      </trkpt>
      <trkpt lat="48.25733" lon="4.73582">
        <ele>225</ele>
        <time>2024-07-03T08:17:20Z</time>
      </trkpt>
      <trkpt lat="48.25797" lon="4.73645">
        <ele>226</ele>
        <time>2024-07-03T08:17:34Z</time>
      </trkpt>
      <trkpt lat="48.25921" lon="4.73748">
        <ele>231</ele>
        <time>2024-07-03T08:17:59Z</time>
      </trkpt>
      <trkpt lat="48.25952" lon="4.73768">
        <ele>231</ele>
        <time>2024-07-03T08:18:05Z</time>
      </trkpt>
      <trkpt lat="48.25963" lon="4.73898">
        <ele>224</ele>
        <time>2024-07-03T08:18:21Z</time>
      </trkpt>
      <trkpt lat="48.26001" lon="4.73923">
        <ele>225</ele>
        <time>2024-07-03T08:18:28Z</time>
      </trkpt>
      <trkpt lat="48.26001" lon="4.7394">
        <ele>223</ele>
        <time>2024-07-03T08:18:30Z</time>
      </trkpt>
      <trkpt lat="48.26074" lon="4.74227">
        <ele>210</ele>
        <time>2024-07-03T08:19:06Z</time>
      </trkpt>
      <trkpt lat="48.26092" lon="4.7428">
        <ele>208</ele>
        <time>2024-07-03T08:19:13Z</time>
      </trkpt>
      <trkpt lat="48.26095" lon="4.74329">
        <ele>208</ele>
        <time>2024-07-03T08:19:19Z</time>
      </trkpt>
      <trkpt lat="48.26101" lon="4.74345">
        <ele>207</ele>
        <time>2024-07-03T08:19:21Z</time>
      </trkpt>
      <trkpt lat="48.26143" lon="4.74391">
        <ele>206</ele>
        <time>2024-07-03T08:19:31Z</time>
      </trkpt>
      <trkpt lat="48.26149" lon="4.74417">
        <ele>206</ele>
        <time>2024-07-03T08:19:34Z</time>
      </trkpt>
      <trkpt lat="48.26172" lon="4.74409">
        <ele>206</ele>
        <time>2024-07-03T08:19:38Z</time>
      </trkpt>
      <trkpt lat="48.26209" lon="4.74405">
        <ele>207</ele>
        <time>2024-07-03T08:19:45Z</time>
      </trkpt>
      <trkpt lat="48.2626" lon="4.74408">
        <ele>209</ele>
        <time>2024-07-03T08:19:54Z</time>
      </trkpt>
      <trkpt lat="48.26257" lon="4.74419">
        <ele>208</ele>
        <time>2024-07-03T08:19:55Z</time>
      </trkpt>
      <trkpt lat="48.26217" lon="4.74498">
        <ele>206</ele>
        <time>2024-07-03T08:20:07Z</time>
      </trkpt>
      <trkpt lat="48.26206" lon="4.74531">
        <ele>206</ele>
        <time>2024-07-03T08:20:11Z</time>
      </trkpt>
      <trkpt lat="48.26205" lon="4.7455">
        <ele>206</ele>
        <time>2024-07-03T08:20:14Z</time>
      </trkpt>
      <trkpt lat="48.26208" lon="4.7457">
        <ele>206</ele>
        <time>2024-07-03T08:20:16Z</time>
      </trkpt>
      <trkpt lat="48.26213" lon="4.74658">
        <ele>204</ele>
        <time>2024-07-03T08:20:26Z</time>
      </trkpt>
      <trkpt lat="48.26212" lon="4.74886">
        <ele>201</ele>
        <time>2024-07-03T08:20:53Z</time>
      </trkpt>
      <trkpt lat="48.26207" lon="4.74922">
        <ele>201</ele>
        <time>2024-07-03T08:20:58Z</time>
      </trkpt>
      <trkpt lat="48.26169" lon="4.74993">
        <ele>202</ele>
        <time>2024-07-03T08:21:09Z</time>
      </trkpt>
      <trkpt lat="48.26064" lon="4.75149">
        <ele>218</ele>
        <time>2024-07-03T08:21:35Z</time>
      </trkpt>
      <trkpt lat="48.26033" lon="4.75219">
        <ele>223</ele>
        <time>2024-07-03T08:21:45Z</time>
      </trkpt>
      <trkpt lat="48.25994" lon="4.75342">
        <ele>230</ele>
        <time>2024-07-03T08:22:01Z</time>
      </trkpt>
      <trkpt lat="48.25987" lon="4.75386">
        <ele>232</ele>
        <time>2024-07-03T08:22:06Z</time>
      </trkpt>
      <trkpt lat="48.25963" lon="4.75489">
        <ele>237</ele>
        <time>2024-07-03T08:22:19Z</time>
      </trkpt>
      <trkpt lat="48.2596" lon="4.75547">
        <ele>238</ele>
        <time>2024-07-03T08:22:26Z</time>
      </trkpt>
      <trkpt lat="48.2597" lon="4.75771">
        <ele>238</ele>
        <time>2024-07-03T08:22:53Z</time>
      </trkpt>
      <trkpt lat="48.25981" lon="4.75843">
        <ele>236</ele>
        <time>2024-07-03T08:23:01Z</time>
      </trkpt>
      <trkpt lat="48.25997" lon="4.75906">
        <ele>232</ele>
        <time>2024-07-03T08:23:09Z</time>
      </trkpt>
      <trkpt lat="48.26024" lon="4.75944">
        <ele>232</ele>
        <time>2024-07-03T08:23:16Z</time>
      </trkpt>
      <trkpt lat="48.26041" lon="4.75976">
        <ele>231</ele>
        <time>2024-07-03T08:23:21Z</time>
      </trkpt>
      <trkpt lat="48.26062" lon="4.76048">
        <ele>226</ele>
        <time>2024-07-03T08:23:30Z</time>
      </trkpt>
      <trkpt lat="48.26208" lon="4.76159">
        <ele>235</ele>
        <time>2024-07-03T08:23:59Z</time>
      </trkpt>
      <trkpt lat="48.26235" lon="4.76196">
        <ele>238</ele>
        <time>2024-07-03T08:24:06Z</time>
      </trkpt>
      <trkpt lat="48.26253" lon="4.76271">
        <ele>241</ele>
        <time>2024-07-03T08:24:15Z</time>
      </trkpt>
      <trkpt lat="48.26219" lon="4.76602">
        <ele>268</ele>
        <time>2024-07-03T08:24:55Z</time>
      </trkpt>
      <trkpt lat="48.26215" lon="4.76622">
        <ele>271</ele>
        <time>2024-07-03T08:24:57Z</time>
      </trkpt>
      <trkpt lat="48.26204" lon="4.76622">
        <ele>271</ele>
        <time>2024-07-03T08:24:59Z</time>
      </trkpt>
      <trkpt lat="48.26112" lon="4.76584">
        <ele>268</ele>
        <time>2024-07-03T08:25:16Z</time>
      </trkpt>
      <trkpt lat="48.26095" lon="4.76587">
        <ele>270</ele>
        <time>2024-07-03T08:25:19Z</time>
      </trkpt>
      <trkpt lat="48.26079" lon="4.76606">
        <ele>273</ele>
        <time>2024-07-03T08:25:23Z</time>
      </trkpt>
      <trkpt lat="48.26037" lon="4.76682">
        <ele>274</ele>
        <time>2024-07-03T08:25:35Z</time>
      </trkpt>
      <trkpt lat="48.26029" lon="4.76716">
        <ele>274</ele>
        <time>2024-07-03T08:25:39Z</time>
      </trkpt>
      <trkpt lat="48.26022" lon="4.7677">
        <ele>275</ele>
        <time>2024-07-03T08:25:46Z</time>
      </trkpt>
      <trkpt lat="48.26018" lon="4.76863">
        <ele>275</ele>
        <time>2024-07-03T08:25:57Z</time>
      </trkpt>
      <trkpt lat="48.25995" lon="4.7697">
        <ele>270</ele>
        <time>2024-07-03T08:26:10Z</time>
      </trkpt>
      <trkpt lat="48.2602" lon="4.77065">
        <ele>276</ele>
        <time>2024-07-03T08:26:22Z</time>
      </trkpt>
      <trkpt lat="48.26031" lon="4.772">
        <ele>278</ele>
        <time>2024-07-03T08:26:38Z</time>
      </trkpt>
      <trkpt lat="48.26059" lon="4.77316">
        <ele>282</ele>
        <time>2024-07-03T08:26:53Z</time>
      </trkpt>
      <trkpt lat="48.26067" lon="4.77341">
        <ele>283</ele>
        <time>2024-07-03T08:26:56Z</time>
      </trkpt>
      <trkpt lat="48.26081" lon="4.77351">
        <ele>286</ele>
        <time>2024-07-03T08:26:59Z</time>
      </trkpt>
      <trkpt lat="48.26106" lon="4.77375">
        <ele>288</ele>
        <time>2024-07-03T08:27:04Z</time>
      </trkpt>
      <trkpt lat="48.26111" lon="4.77455">
        <ele>282</ele>
        <time>2024-07-03T08:27:14Z</time>
      </trkpt>
      <trkpt lat="48.2613" lon="4.77604">
        <ele>273</ele>
        <time>2024-07-03T08:27:32Z</time>
      </trkpt>
      <trkpt lat="48.26158" lon="4.77767">
        <ele>263</ele>
        <time>2024-07-03T08:27:51Z</time>
      </trkpt>
      <trkpt lat="48.2617" lon="4.77861">
        <ele>256</ele>
        <time>2024-07-03T08:28:03Z</time>
      </trkpt>
      <trkpt lat="48.26174" lon="4.78037">
        <ele>244</ele>
        <time>2024-07-03T08:28:24Z</time>
      </trkpt>
      <trkpt lat="48.26182" lon="4.78124">
        <ele>240</ele>
        <time>2024-07-03T08:28:34Z</time>
      </trkpt>
      <trkpt lat="48.26214" lon="4.78256">
        <ele>234</ele>
        <time>2024-07-03T08:28:51Z</time>
      </trkpt>
      <trkpt lat="48.26217" lon="4.7829">
        <ele>232</ele>
        <time>2024-07-03T08:28:55Z</time>
      </trkpt>
      <trkpt lat="48.26191" lon="4.78269">
        <ele>232</ele>
        <time>2024-07-03T08:29:00Z</time>
      </trkpt>
      <trkpt lat="48.2619" lon="4.78277">
        <ele>232</ele>
        <time>2024-07-03T08:29:01Z</time>
      </trkpt>
      <trkpt lat="48.26206" lon="4.78329">
        <ele>229</ele>
        <time>2024-07-03T08:29:08Z</time>
      </trkpt>
      <trkpt lat="48.26201" lon="4.78361">
        <ele>227</ele>
        <time>2024-07-03T08:29:12Z</time>
      </trkpt>
      <trkpt lat="48.26008" lon="4.78489">
        <ele>219</ele>
        <time>2024-07-03T08:29:49Z</time>
      </trkpt>
      <trkpt lat="48.25844" lon="4.78565">
        <ele>215</ele>
        <time>2024-07-03T08:30:20Z</time>
      </trkpt>
      <trkpt lat="48.25806" lon="4.78596">
        <ele>214</ele>
        <time>2024-07-03T08:30:27Z</time>
      </trkpt>
      <trkpt lat="48.25815" lon="4.7859">
        <ele>215</ele>
        <time>2024-07-03T08:30:29Z</time>
      </trkpt>
      <trkpt lat="48.25802" lon="4.78886">
        <ele>221</ele>
        <time>2024-07-03T08:31:04Z</time>
      </trkpt>
      <trkpt lat="48.25804" lon="4.79117">
        <ele>221</ele>
        <time>2024-07-03T08:31:32Z</time>
      </trkpt>
      <trkpt lat="48.25802" lon="4.79146">
        <ele>221</ele>
        <time>2024-07-03T08:31:35Z</time>
      </trkpt>
      <trkpt lat="48.25797" lon="4.79172">
        <ele>221</ele>
        <time>2024-07-03T08:31:38Z</time>
      </trkpt>
      <trkpt lat="48.25801" lon="4.79145">
        <ele>221</ele>
        <time>2024-07-03T08:31:42Z</time>
      </trkpt>
      <trkpt lat="48.25684" lon="4.79471">
        <ele>223</ele>
        <time>2024-07-03T08:32:25Z</time>
      </trkpt>
      <trkpt lat="48.25206" lon="4.79773">
        <ele>250</ele>
        <time>2024-07-03T08:33:58Z</time>
      </trkpt>
      <trkpt lat="48.2495" lon="4.79545">
        <ele>269</ele>
        <time>2024-07-03T08:34:51Z</time>
      </trkpt>
      <trkpt lat="48.24835" lon="4.79804">
        <ele>284</ele>
        <time>2024-07-03T08:35:28Z</time>
      </trkpt>
      <trkpt lat="48.24809" lon="4.80071">
        <ele>286</ele>
        <time>2024-07-03T08:36:00Z</time>
      </trkpt>
      <trkpt lat="48.24622" lon="4.804">
        <ele>301</ele>
        <time>2024-07-03T08:36:51Z</time>
      </trkpt>
      <trkpt lat="48.24481" lon="4.80521">
        <ele>306</ele>
        <time>2024-07-03T08:37:20Z</time>
      </trkpt>
      <trkpt lat="48.24457" lon="4.8056">
        <ele>306</ele>
        <time>2024-07-03T08:37:26Z</time>
      </trkpt>
      <trkpt lat="48.24442" lon="4.80592">
        <ele>305</ele>
        <time>2024-07-03T08:37:31Z</time>
      </trkpt>
      <trkpt lat="48.24417" lon="4.80688">
        <ele>302</ele>
        <time>2024-07-03T08:37:43Z</time>
      </trkpt>
      <trkpt lat="48.24395" lon="4.80827">
        <ele>297</ele>
        <time>2024-07-03T08:38:00Z</time>
      </trkpt>
      <trkpt lat="48.24385" lon="4.8098">
        <ele>293</ele>
        <time>2024-07-03T08:38:18Z</time>
      </trkpt>
      <trkpt lat="48.24379" lon="4.81026">
        <ele>293</ele>
        <time>2024-07-03T08:38:24Z</time>
      </trkpt>
      <trkpt lat="48.24361" lon="4.81064">
        <ele>291</ele>
        <time>2024-07-03T08:38:29Z</time>
      </trkpt>
      <trkpt lat="48.24327" lon="4.81116">
        <ele>289</ele>
        <time>2024-07-03T08:38:38Z</time>
      </trkpt>
      <trkpt lat="48.24317" lon="4.8114">
        <ele>289</ele>
        <time>2024-07-03T08:38:41Z</time>
      </trkpt>
      <trkpt lat="48.2431" lon="4.81166">
        <ele>289</ele>
        <time>2024-07-03T08:38:44Z</time>
      </trkpt>
      <trkpt lat="48.24305" lon="4.81226">
        <ele>287</ele>
        <time>2024-07-03T08:38:52Z</time>
      </trkpt>
      <trkpt lat="48.2431" lon="4.81265">
        <ele>286</ele>
        <time>2024-07-03T08:38:56Z</time>
      </trkpt>
      <trkpt lat="48.24326" lon="4.81329">
        <ele>285</ele>
        <time>2024-07-03T08:39:04Z</time>
      </trkpt>
      <trkpt lat="48.2442" lon="4.81616">
        <ele>279</ele>
        <time>2024-07-03T08:39:42Z</time>
      </trkpt>
      <trkpt lat="48.24429" lon="4.81653">
        <ele>277</ele>
        <time>2024-07-03T08:39:47Z</time>
      </trkpt>
      <trkpt lat="48.24431" lon="4.81698">
        <ele>274</ele>
        <time>2024-07-03T08:39:52Z</time>
      </trkpt>
      <trkpt lat="48.24428" lon="4.81719">
        <ele>272</ele>
        <time>2024-07-03T08:39:55Z</time>
      </trkpt>
      <trkpt lat="48.24419" lon="4.8174">
        <ele>271</ele>
        <time>2024-07-03T08:39:58Z</time>
      </trkpt>
      <trkpt lat="48.24404" lon="4.81761">
        <ele>268</ele>
        <time>2024-07-03T08:40:01Z</time>
      </trkpt>
      <trkpt lat="48.24366" lon="4.81788">
        <ele>265</ele>
        <time>2024-07-03T08:40:09Z</time>
      </trkpt>
      <trkpt lat="48.24187" lon="4.81841">
        <ele>258</ele>
        <time>2024-07-03T08:40:41Z</time>
      </trkpt>
      <trkpt lat="48.2417" lon="4.8185">
        <ele>256</ele>
        <time>2024-07-03T08:40:45Z</time>
      </trkpt>
      <trkpt lat="48.24156" lon="4.81863">
        <ele>255</ele>
        <time>2024-07-03T08:40:48Z</time>
      </trkpt>
      <trkpt lat="48.24144" lon="4.8188">
        <ele>253</ele>
        <time>2024-07-03T08:40:50Z</time>
      </trkpt>
      <trkpt lat="48.24136" lon="4.81899">
        <ele>252</ele>
        <time>2024-07-03T08:40:53Z</time>
      </trkpt>
      <trkpt lat="48.2413" lon="4.81925">
        <ele>250</ele>
        <time>2024-07-03T08:40:56Z</time>
      </trkpt>
      <trkpt lat="48.24128" lon="4.81946">
        <ele>250</ele>
        <time>2024-07-03T08:40:59Z</time>
      </trkpt>
      <trkpt lat="48.24132" lon="4.8199">
        <ele>248</ele>
        <time>2024-07-03T08:41:04Z</time>
      </trkpt>
      <trkpt lat="48.24134" lon="4.82065">
        <ele>245</ele>
        <time>2024-07-03T08:41:13Z</time>
      </trkpt>
      <trkpt lat="48.24071" lon="4.82096">
        <ele>242</ele>
        <time>2024-07-03T08:41:25Z</time>
      </trkpt>
      <trkpt lat="48.24117" lon="4.82263">
        <ele>241</ele>
        <time>2024-07-03T08:41:46Z</time>
      </trkpt>
      <trkpt lat="48.2397" lon="4.8304">
        <ele>244</ele>
        <time>2024-07-03T08:43:22Z</time>
      </trkpt>
      <trkpt lat="48.23718" lon="4.83559">
        <ele>241</ele>
        <time>2024-07-03T08:44:38Z</time>
      </trkpt>
      <trkpt lat="48.2349" lon="4.83938">
        <ele>256</ele>
        <time>2024-07-03T08:45:39Z</time>
      </trkpt>
      <trkpt lat="48.2325" lon="4.8436">
        <ele>269</ele>
        <time>2024-07-03T08:46:44Z</time>
      </trkpt>
      <trkpt lat="48.23103" lon="4.84904">
        <ele>291</ele>
        <time>2024-07-03T08:47:54Z</time>
      </trkpt>
      <trkpt lat="48.23054" lon="4.85924">
        <ele>321</ele>
        <time>2024-07-03T08:49:55Z</time>
      </trkpt>
      <trkpt lat="48.22989" lon="4.86468">
        <ele>335</ele>
        <time>2024-07-03T08:51:01Z</time>
      </trkpt>
      <trkpt lat="48.2277" lon="4.87214">
        <ele>340</ele>
        <time>2024-07-03T08:52:37Z</time>
      </trkpt>
      <trkpt lat="48.22264" lon="4.87745">
        <ele>363</ele>
        <time>2024-07-03T08:54:27Z</time>
      </trkpt>
      <trkpt lat="48.22233" lon="4.87827">
        <ele>359</ele>
        <time>2024-07-03T08:54:38Z</time>
      </trkpt>
      <trkpt lat="48.22246" lon="4.88163">
        <ele>361</ele>
        <time>2024-07-03T08:55:18Z</time>
      </trkpt>
      <trkpt lat="48.22264" lon="4.88353">
        <ele>357</ele>
        <time>2024-07-03T08:55:41Z</time>
      </trkpt>
      <trkpt lat="48.2225" lon="4.8847">
        <ele>356</ele>
        <time>2024-07-03T08:55:55Z</time>
      </trkpt>
      <trkpt lat="48.22173" lon="4.88498">
        <ele>355</ele>
        <time>2024-07-03T08:56:09Z</time>
      </trkpt>
      <trkpt lat="48.22147" lon="4.88571">
        <ele>354</ele>
        <time>2024-07-03T08:56:19Z</time>
      </trkpt>
      <trkpt lat="48.21994" lon="4.88524">
        <ele>355</ele>
        <time>2024-07-03T08:56:47Z</time>
      </trkpt>
      <trkpt lat="48.21896" lon="4.88488">
        <ele>359</ele>
        <time>2024-07-03T08:57:05Z</time>
      </trkpt>
      <trkpt lat="48.21774" lon="4.8846">
        <ele>359</ele>
        <time>2024-07-03T08:57:27Z</time>
      </trkpt>
      <trkpt lat="48.21697" lon="4.88431">
        <ele>352</ele>
        <time>2024-07-03T08:57:41Z</time>
      </trkpt>
      <trkpt lat="48.21649" lon="4.88409">
        <ele>349</ele>
        <time>2024-07-03T08:57:50Z</time>
      </trkpt>
      <trkpt lat="48.21608" lon="4.88386">
        <ele>346</ele>
        <time>2024-07-03T08:57:58Z</time>
      </trkpt>
      <trkpt lat="48.21389" lon="4.8821">
        <ele>338</ele>
        <time>2024-07-03T08:58:42Z</time>
      </trkpt>
      <trkpt lat="48.21358" lon="4.88197">
        <ele>338</ele>
        <time>2024-07-03T08:58:47Z</time>
      </trkpt>
      <trkpt lat="48.21035" lon="4.88085">
        <ele>329</ele>
        <time>2024-07-03T08:59:46Z</time>
      </trkpt>
      <trkpt lat="48.19788" lon="4.862">
        <ele>320</ele>
        <time>2024-07-03T09:05:01Z</time>
      </trkpt>
      <trkpt lat="48.19412" lon="4.85745">
        <ele>319</ele>
        <time>2024-07-03T09:06:27Z</time>
      </trkpt>
      <trkpt lat="48.18009" lon="4.84673">
        <ele>327</ele>
        <time>2024-07-03T09:11:07Z</time>
      </trkpt>
      <trkpt lat="48.17775" lon="4.84086">
        <ele>326</ele>
        <time>2024-07-03T09:12:29Z</time>
      </trkpt>
      <trkpt lat="48.17971" lon="4.83671">
        <ele>333</ele>
        <time>2024-07-03T09:13:29Z</time>
      </trkpt>
      <trkpt lat="48.18089" lon="4.83189">
        <ele>323</ele>
        <time>2024-07-03T09:14:30Z</time>
      </trkpt>
      <trkpt lat="48.18466" lon="4.82868">
        <ele>308</ele>
        <time>2024-07-03T09:15:47Z</time>
      </trkpt>
      <trkpt lat="48.18824" lon="4.82368">
        <ele>295</ele>
        <time>2024-07-03T09:17:14Z</time>
      </trkpt>
      <trkpt lat="48.18878" lon="4.82175">
        <ele>291</ele>
        <time>2024-07-03T09:17:39Z</time>
      </trkpt>
      <trkpt lat="48.18925" lon="4.82108">
        <ele>292</ele>
        <time>2024-07-03T09:17:50Z</time>
      </trkpt>
      <trkpt lat="48.18954" lon="4.81987">
        <ele>297</ele>
        <time>2024-07-03T09:18:06Z</time>
      </trkpt>
      <trkpt lat="48.19017" lon="4.81888">
        <ele>293</ele>
        <time>2024-07-03T09:18:22Z</time>
      </trkpt>
      <trkpt lat="48.19064" lon="4.81779">
        <ele>292</ele>
        <time>2024-07-03T09:18:37Z</time>
      </trkpt>
      <trkpt lat="48.19079" lon="4.81654">
        <ele>292</ele>
        <time>2024-07-03T09:18:52Z</time>
      </trkpt>
      <trkpt lat="48.19159" lon="4.81514">
        <ele>288</ele>
        <time>2024-07-03T09:19:14Z</time>
      </trkpt>
      <trkpt lat="48.19277" lon="4.8109">
        <ele>280</ele>
        <time>2024-07-03T09:20:09Z</time>
      </trkpt>
      <trkpt lat="48.19282" lon="4.80991">
        <ele>278</ele>
        <time>2024-07-03T09:20:21Z</time>
      </trkpt>
      <trkpt lat="48.19281" lon="4.80737">
        <ele>282</ele>
        <time>2024-07-03T09:20:51Z</time>
      </trkpt>
      <trkpt lat="48.19357" lon="4.80558">
        <ele>281</ele>
        <time>2024-07-03T09:21:16Z</time>
      </trkpt>
      <trkpt lat="48.19396" lon="4.80391">
        <ele>276</ele>
        <time>2024-07-03T09:21:37Z</time>
      </trkpt>
      <trkpt lat="48.19384" lon="4.80251">
        <ele>273</ele>
        <time>2024-07-03T09:21:54Z</time>
      </trkpt>
      <trkpt lat="48.19401" lon="4.80108">
        <ele>268</ele>
        <time>2024-07-03T09:22:11Z</time>
      </trkpt>
      <trkpt lat="48.1945" lon="4.80011">
        <ele>261</ele>
        <time>2024-07-03T09:22:25Z</time>
      </trkpt>
      <trkpt lat="48.19487" lon="4.79851">
        <ele>248</ele>
        <time>2024-07-03T09:22:45Z</time>
      </trkpt>
      <trkpt lat="48.19432" lon="4.79409">
        <ele>217</ele>
        <time>2024-07-03T09:23:39Z</time>
      </trkpt>
      <trkpt lat="48.19499" lon="4.79208">
        <ele>211</ele>
        <time>2024-07-03T09:24:05Z</time>
      </trkpt>
      <trkpt lat="48.19532" lon="4.78991">
        <ele>195</ele>
        <time>2024-07-03T09:24:32Z</time>
      </trkpt>
      <trkpt lat="48.19555" lon="4.78814">
        <ele>187</ele>
        <time>2024-07-03T09:24:53Z</time>
      </trkpt>
      <trkpt lat="48.19601" lon="4.78673">
        <ele>183</ele>
        <time>2024-07-03T09:25:12Z</time>
      </trkpt>
      <trkpt lat="48.19522" lon="4.78683">
        <ele>181</ele>
        <time>2024-07-03T09:25:26Z</time>
      </trkpt>
      <trkpt lat="48.19444" lon="4.7875">
        <ele>183</ele>
        <time>2024-07-03T09:25:42Z</time>
      </trkpt>
      <trkpt lat="48.19409" lon="4.78687">
        <ele>181</ele>
        <time>2024-07-03T09:25:52Z</time>
      </trkpt>
      <trkpt lat="48.19227" lon="4.78684">
        <ele>181</ele>
        <time>2024-07-03T09:26:24Z</time>
      </trkpt>
      <trkpt lat="48.19133" lon="4.78642">
        <ele>179</ele>
        <time>2024-07-03T09:26:41Z</time>
      </trkpt>
      <trkpt lat="48.19013" lon="4.78506">
        <ele>179</ele>
        <time>2024-07-03T09:27:08Z</time>
      </trkpt>
      <trkpt lat="48.18896" lon="4.78269">
        <ele>187</ele>
        <time>2024-07-03T09:27:43Z</time>
      </trkpt>
      <trkpt lat="48.18761" lon="4.78477">
        <ele>197</ele>
        <time>2024-07-03T09:28:18Z</time>
      </trkpt>
      <trkpt lat="48.18641" lon="4.78744">
        <ele>203</ele>
        <time>2024-07-03T09:28:56Z</time>
      </trkpt>
      <trkpt lat="48.18624" lon="4.7875">
        <ele>203</ele>
        <time>2024-07-03T09:28:59Z</time>
      </trkpt>
      <trkpt lat="48.18607" lon="4.78734">
        <ele>203</ele>
        <time>2024-07-03T09:29:02Z</time>
      </trkpt>
      <trkpt lat="48.18575" lon="4.78692">
        <ele>205</ele>
        <time>2024-07-03T09:29:10Z</time>
      </trkpt>
      <trkpt lat="48.18545" lon="4.7868">
        <ele>206</ele>
        <time>2024-07-03T09:29:15Z</time>
      </trkpt>
      <trkpt lat="48.18494" lon="4.78705">
        <ele>206</ele>
        <time>2024-07-03T09:29:25Z</time>
      </trkpt>
      <trkpt lat="48.18484" lon="4.78699">
        <ele>206</ele>
        <time>2024-07-03T09:29:27Z</time>
      </trkpt>
      <trkpt lat="48.18473" lon="4.78701">
        <ele>206</ele>
        <time>2024-07-03T09:29:29Z</time>
      </trkpt>
      <trkpt lat="48.18425" lon="4.7878">
        <ele>202</ele>
        <time>2024-07-03T09:29:42Z</time>
      </trkpt>
      <trkpt lat="48.18407" lon="4.78732">
        <ele>204</ele>
        <time>2024-07-03T09:29:48Z</time>
      </trkpt>
      <trkpt lat="48.1836" lon="4.78713">
        <ele>199</ele>
        <time>2024-07-03T09:29:57Z</time>
      </trkpt>
      <trkpt lat="48.1823" lon="4.78543">
        <ele>191</ele>
        <time>2024-07-03T09:30:27Z</time>
      </trkpt>
      <trkpt lat="48.18198" lon="4.78201">
        <ele>204</ele>
        <time>2024-07-03T09:31:08Z</time>
      </trkpt>
      <trkpt lat="48.1818" lon="4.77978">
        <ele>205</ele>
        <time>2024-07-03T09:31:35Z</time>
      </trkpt>
      <trkpt lat="48.18038" lon="4.77717">
        <ele>212</ele>
        <time>2024-07-03T09:32:15Z</time>
      </trkpt>
      <trkpt lat="48.17964" lon="4.77469">
        <ele>216</ele>
        <time>2024-07-03T09:32:47Z</time>
      </trkpt>
      <trkpt lat="48.17805" lon="4.77041">
        <ele>222</ele>
        <time>2024-07-03T09:33:45Z</time>
      </trkpt>
      <trkpt lat="48.17757" lon="4.76687">
        <ele>222</ele>
        <time>2024-07-03T09:34:28Z</time>
      </trkpt>
      <trkpt lat="48.17736" lon="4.76614">
        <ele>223</ele>
        <time>2024-07-03T09:34:38Z</time>
      </trkpt>
      <trkpt lat="48.17638" lon="4.76474">
        <ele>221</ele>
        <time>2024-07-03T09:35:02Z</time>
      </trkpt>
      <trkpt lat="48.17623" lon="4.76401">
        <ele>224</ele>
        <time>2024-07-03T09:35:11Z</time>
      </trkpt>
      <trkpt lat="48.17627" lon="4.75963">
        <ele>237</ele>
        <time>2024-07-03T09:36:03Z</time>
      </trkpt>
      <trkpt lat="48.17552" lon="4.75603">
        <ele>244</ele>
        <time>2024-07-03T09:36:48Z</time>
      </trkpt>
      <trkpt lat="48.17436" lon="4.74341">
        <ele>267</ele>
        <time>2024-07-03T09:39:19Z</time>
      </trkpt>
      <trkpt lat="48.16476" lon="4.75394">
        <ele>290</ele>
        <time>2024-07-03T09:42:50Z</time>
      </trkpt>
      <trkpt lat="48.16138" lon="4.75775">
        <ele>287</ele>
        <time>2024-07-03T09:44:06Z</time>
      </trkpt>
      <trkpt lat="48.16001" lon="4.7571">
        <ele>287</ele>
        <time>2024-07-03T09:44:31Z</time>
      </trkpt>
      <trkpt lat="48.15853" lon="4.75636">
        <ele>291</ele>
        <time>2024-07-03T09:44:59Z</time>
      </trkpt>
      <trkpt lat="48.15785" lon="4.75673">
        <ele>291</ele>
        <time>2024-07-03T09:45:12Z</time>
      </trkpt>
      <trkpt lat="48.15715" lon="4.75735">
        <ele>291</ele>
        <time>2024-07-03T09:45:26Z</time>
      </trkpt>
      <trkpt lat="48.1565" lon="4.75973">
        <ele>288</ele>
        <time>2024-07-03T09:45:57Z</time>
      </trkpt>
      <trkpt lat="48.15589" lon="4.76022">
        <ele>287</ele>
        <time>2024-07-03T09:46:09Z</time>
      </trkpt>
      <trkpt lat="48.15552" lon="4.76071">
        <ele>285</ele>
        <time>2024-07-03T09:46:18Z</time>
      </trkpt>
      <trkpt lat="48.15536" lon="4.76254">
        <ele>279</ele>
        <time>2024-07-03T09:46:40Z</time>
      </trkpt>
      <trkpt lat="48.15561" lon="4.76425">
        <ele>270</ele>
        <time>2024-07-03T09:47:01Z</time>
      </trkpt>
      <trkpt lat="48.15531" lon="4.76461">
        <ele>269</ele>
        <time>2024-07-03T09:47:07Z</time>
      </trkpt>
      <trkpt lat="48.15438" lon="4.76496">
        <ele>263</ele>
        <time>2024-07-03T09:47:25Z</time>
      </trkpt>
      <trkpt lat="48.15253" lon="4.76544">
        <ele>260</ele>
        <time>2024-07-03T09:47:58Z</time>
      </trkpt>
      <trkpt lat="48.15223" lon="4.76573">
        <ele>261</ele>
        <time>2024-07-03T09:48:04Z</time>
      </trkpt>
      <trkpt lat="48.15141" lon="4.76717">
        <ele>253</ele>
        <time>2024-07-03T09:48:27Z</time>
      </trkpt>
      <trkpt lat="48.15069" lon="4.76791">
        <ele>251</ele>
        <time>2024-07-03T09:48:42Z</time>
      </trkpt>
      <trkpt lat="48.14941" lon="4.7691">
        <ele>241</ele>
        <time>2024-07-03T09:49:09Z</time>
      </trkpt>
      <trkpt lat="48.14662" lon="4.76929">
        <ele>219</ele>
        <time>2024-07-03T09:49:59Z</time>
      </trkpt>
      <trkpt lat="48.14564" lon="4.77338">
        <ele>217</ele>
        <time>2024-07-03T09:50:50Z</time>
      </trkpt>
      <trkpt lat="48.14596" lon="4.77865">
        <ele>203</ele>
        <time>2024-07-03T09:51:53Z</time>
      </trkpt>
      <trkpt lat="48.14433" lon="4.77927">
        <ele>197</ele>
        <time>2024-07-03T09:52:23Z</time>
      </trkpt>
      <trkpt lat="48.14394" lon="4.7808">
        <ele>202</ele>
        <time>2024-07-03T09:52:43Z</time>
      </trkpt>
      <trkpt lat="48.14169" lon="4.77319">
        <ele>224</ele>
        <time>2024-07-03T09:54:21Z</time>
      </trkpt>
      <trkpt lat="48.13804" lon="4.76442">
        <ele>231</ele>
        <time>2024-07-03T09:56:24Z</time>
      </trkpt>
      <trkpt lat="48.13775" lon="4.75909">
        <ele>234</ele>
        <time>2024-07-03T09:57:28Z</time>
      </trkpt>
      <trkpt lat="48.13608" lon="4.75399">
        <ele>241</ele>
        <time>2024-07-03T09:58:35Z</time>
      </trkpt>
      <trkpt lat="48.13562" lon="4.753">
        <ele>240</ele>
        <time>2024-07-03T09:58:49Z</time>
      </trkpt>
      <trkpt lat="48.13488" lon="4.75177">
        <ele>242</ele>
        <time>2024-07-03T09:59:09Z</time>
      </trkpt>
      <trkpt lat="48.13462" lon="4.75116">
        <ele>243</ele>
        <time>2024-07-03T09:59:18Z</time>
      </trkpt>
      <trkpt lat="48.1345" lon="4.75056">
        <ele>243</ele>
        <time>2024-07-03T09:59:25Z</time>
      </trkpt>
      <trkpt lat="48.1344" lon="4.74984">
        <ele>243</ele>
        <time>2024-07-03T09:59:34Z</time>
      </trkpt>
      <trkpt lat="48.13439" lon="4.74894">
        <ele>244</ele>
        <time>2024-07-03T09:59:45Z</time>
      </trkpt>
      <trkpt lat="48.13429" lon="4.7481">
        <ele>244</ele>
        <time>2024-07-03T09:59:55Z</time>
      </trkpt>
      <trkpt lat="48.13412" lon="4.74755">
        <ele>245</ele>
        <time>2024-07-03T10:00:02Z</time>
      </trkpt>
      <trkpt lat="48.13365" lon="4.74673">
        <ele>249</ele>
        <time>2024-07-03T10:00:15Z</time>
      </trkpt>
      <trkpt lat="48.13248" lon="4.74574">
        <ele>243</ele>
        <time>2024-07-03T10:00:39Z</time>
      </trkpt>
      <trkpt lat="48.1319" lon="4.74318">
        <ele>250</ele>
        <time>2024-07-03T10:01:11Z</time>
      </trkpt>
      <trkpt lat="48.13066" lon="4.74198">
        <ele>255</ele>
        <time>2024-07-03T10:01:37Z</time>
      </trkpt>
      <trkpt lat="48.12995" lon="4.74001">
        <ele>259</ele>
        <time>2024-07-03T10:02:04Z</time>
      </trkpt>
      <trkpt lat="48.12879" lon="4.73915">
        <ele>260</ele>
        <time>2024-07-03T10:02:27Z</time>
      </trkpt>
      <trkpt lat="48.1281" lon="4.73766">
        <ele>256</ele>
        <time>2024-07-03T10:02:48Z</time>
      </trkpt>
      <trkpt lat="48.12657" lon="4.73707">
        <ele>257</ele>
        <time>2024-07-03T10:03:16Z</time>
      </trkpt>
      <trkpt lat="48.12565" lon="4.73644">
        <ele>262</ele>
        <time>2024-07-03T10:03:34Z</time>
      </trkpt>
      <trkpt lat="48.12486" lon="4.73521">
        <ele>270</ele>
        <time>2024-07-03T10:03:54Z</time>
      </trkpt>
      <trkpt lat="48.12298" lon="4.73356">
        <ele>270</ele>
        <time>2024-07-03T10:04:33Z</time>
      </trkpt>
      <trkpt lat="48.12079" lon="4.73298">
        <ele>275</ele>
        <time>2024-07-03T10:05:13Z</time>
      </trkpt>
      <trkpt lat="48.12015" lon="4.73266">
        <ele>273</ele>
        <time>2024-07-03T10:05:25Z</time>
      </trkpt>
      <trkpt lat="48.11953" lon="4.73191">
        <ele>271</ele>
        <time>2024-07-03T10:05:39Z</time>
      </trkpt>
      <trkpt lat="48.11899" lon="4.73119">
        <ele>272</ele>
        <time>2024-07-03T10:05:52Z</time>
      </trkpt>
      <trkpt lat="48.11862" lon="4.73084">
        <ele>274</ele>
        <time>2024-07-03T10:06:00Z</time>
      </trkpt>
      <trkpt lat="48.11835" lon="4.73066">
        <ele>276</ele>
        <time>2024-07-03T10:06:05Z</time>
      </trkpt>
      <trkpt lat="48.11754" lon="4.73024">
        <ele>276</ele>
        <time>2024-07-03T10:06:20Z</time>
      </trkpt>
      <trkpt lat="48.11702" lon="4.73001">
        <ele>280</ele>
        <time>2024-07-03T10:06:30Z</time>
      </trkpt>
      <trkpt lat="48.11543" lon="4.72911">
        <ele>288</ele>
        <time>2024-07-03T10:07:00Z</time>
      </trkpt>
      <trkpt lat="48.11338" lon="4.7286">
        <ele>290</ele>
        <time>2024-07-03T10:07:37Z</time>
      </trkpt>
      <trkpt lat="48.11266" lon="4.72827">
        <ele>294</ele>
        <time>2024-07-03T10:07:50Z</time>
      </trkpt>
      <trkpt lat="48.11103" lon="4.7282">
        <ele>294</ele>
        <time>2024-07-03T10:08:19Z</time>
      </trkpt>
      <trkpt lat="48.10654" lon="4.72508">
        <ele>306</ele>
        <time>2024-07-03T10:09:48Z</time>
      </trkpt>
      <trkpt lat="48.10642" lon="4.72476">
        <ele>306</ele>
        <time>2024-07-03T10:09:52Z</time>
      </trkpt>
      <trkpt lat="48.1061" lon="4.72334">
        <ele>311</ele>
        <time>2024-07-03T10:10:10Z</time>
      </trkpt>
      <trkpt lat="48.10576" lon="4.72318">
        <ele>312</ele>
        <time>2024-07-03T10:10:16Z</time>
      </trkpt>
      <trkpt lat="48.10506" lon="4.7217">
        <ele>322</ele>
        <time>2024-07-03T10:10:38Z</time>
      </trkpt>
      <trkpt lat="48.10476" lon="4.71998">
        <ele>327</ele>
        <time>2024-07-03T10:10:59Z</time>
      </trkpt>
      <trkpt lat="48.10231" lon="4.71743">
        <ele>341</ele>
        <time>2024-07-03T10:11:52Z</time>
      </trkpt>
      <trkpt lat="48.10108" lon="4.71057">
        <ele>341</ele>
        <time>2024-07-03T10:13:16Z</time>
      </trkpt>
      <trkpt lat="48.10029" lon="4.70646">
        <ele>335</ele>
        <time>2024-07-03T10:14:07Z</time>
      </trkpt>
      <trkpt lat="48.10016" lon="4.70529">
        <ele>333</ele>
        <time>2024-07-03T10:14:21Z</time>
      </trkpt>
      <trkpt lat="48.0997" lon="4.70417">
        <ele>326</ele>
        <time>2024-07-03T10:14:37Z</time>
      </trkpt>
      <trkpt lat="48.09705" lon="4.70428">
        <ele>332</ele>
        <time>2024-07-03T10:15:24Z</time>
      </trkpt>
      <trkpt lat="48.09614" lon="4.70458">
        <ele>337</ele>
        <time>2024-07-03T10:15:40Z</time>
      </trkpt>
      <trkpt lat="48.09486" lon="4.7066">
        <ele>335</ele>
        <time>2024-07-03T10:16:14Z</time>
      </trkpt>
      <trkpt lat="48.09343" lon="4.70694">
        <ele>335</ele>
        <time>2024-07-03T10:16:39Z</time>
      </trkpt>
      <trkpt lat="48.08978" lon="4.70608">
        <ele>344</ele>
        <time>2024-07-03T10:17:45Z</time>
      </trkpt>
      <trkpt lat="48.08864" lon="4.70522">
        <ele>347</ele>
        <time>2024-07-03T10:18:08Z</time>
      </trkpt>
      <trkpt lat="48.0874" lon="4.70738">
        <ele>347</ele>
        <time>2024-07-03T10:18:42Z</time>
      </trkpt>
      <trkpt lat="48.08683" lon="4.70704">
        <ele>346</ele>
        <time>2024-07-03T10:18:53Z</time>
      </trkpt>
      <trkpt lat="48.08537" lon="4.70759">
        <ele>348</ele>
        <time>2024-07-03T10:19:19Z</time>
      </trkpt>
      <trkpt lat="48.08333" lon="4.70756">
        <ele>351</ele>
        <time>2024-07-03T10:19:56Z</time>
      </trkpt>
      <trkpt lat="48.08266" lon="4.70667">
        <ele>353</ele>
        <time>2024-07-03T10:20:12Z</time>
      </trkpt>
      <trkpt lat="48.08035" lon="4.71167">
        <ele>365</ele>
        <time>2024-07-03T10:21:24Z</time>
      </trkpt>
      <trkpt lat="48.07724" lon="4.70888">
        <ele>361</ele>
        <time>2024-07-03T10:22:28Z</time>
      </trkpt>
      <trkpt lat="48.077" lon="4.70884">
        <ele>361</ele>
        <time>2024-07-03T10:22:33Z</time>
      </trkpt>
      <trkpt lat="48.06705" lon="4.69911">
        <ele>345</ele>
        <time>2024-07-03T10:26:04Z</time>
      </trkpt>
      <trkpt lat="48.06668" lon="4.69909">
        <ele>345</ele>
        <time>2024-07-03T10:26:11Z</time>
      </trkpt>
      <trkpt lat="48.06334" lon="4.69681">
        <ele>335</ele>
        <time>2024-07-03T10:27:16Z</time>
      </trkpt>
      <trkpt lat="48.06105" lon="4.69893">
        <ele>346</ele>
        <time>2024-07-03T10:28:04Z</time>
      </trkpt>
      <trkpt lat="48.06077" lon="4.69953">
        <ele>348</ele>
        <time>2024-07-03T10:28:13Z</time>
      </trkpt>
      <trkpt lat="48.05784" lon="4.70245">
        <ele>328</ele>
        <time>2024-07-03T10:29:15Z</time>
      </trkpt>
      <trkpt lat="48.05774" lon="4.70299">
        <ele>327</ele>
        <time>2024-07-03T10:29:22Z</time>
      </trkpt>
      <trkpt lat="48.05753" lon="4.70349">
        <ele>326</ele>
        <time>2024-07-03T10:29:29Z</time>
      </trkpt>
      <trkpt lat="48.05752" lon="4.70356">
        <ele>326</ele>
        <time>2024-07-03T10:29:30Z</time>
      </trkpt>
      <trkpt lat="48.05553" lon="4.70061">
        <ele>314</ele>
        <time>2024-07-03T10:30:20Z</time>
      </trkpt>
      <trkpt lat="48.0551" lon="4.69773">
        <ele>310</ele>
        <time>2024-07-03T10:30:55Z</time>
      </trkpt>
      <trkpt lat="48.0526" lon="4.69124">
        <ele>291</ele>
        <time>2024-07-03T10:32:24Z</time>
      </trkpt>
      <trkpt lat="48.04987" lon="4.68869">
        <ele>279</ele>
        <time>2024-07-03T10:33:21Z</time>
      </trkpt>
      <trkpt lat="48.04954" lon="4.68651">
        <ele>275</ele>
        <time>2024-07-03T10:33:48Z</time>
      </trkpt>
      <trkpt lat="48.04875" lon="4.6845">
        <ele>276</ele>
        <time>2024-07-03T10:34:15Z</time>
      </trkpt>
      <trkpt lat="48.04698" lon="4.68244">
        <ele>271</ele>
        <time>2024-07-03T10:34:55Z</time>
      </trkpt>
      <trkpt lat="48.04639" lon="4.6811">
        <ele>264</ele>
        <time>2024-07-03T10:35:14Z</time>
      </trkpt>
      <trkpt lat="48.04627" lon="4.68026">
        <ele>260</ele>
        <time>2024-07-03T10:35:25Z</time>
      </trkpt>
      <trkpt lat="48.04638" lon="4.67993">
        <ele>262</ele>
        <time>2024-07-03T10:35:29Z</time>
      </trkpt>
      <trkpt lat="48.04605" lon="4.679">
        <ele>266</ele>
        <time>2024-07-03T10:35:42Z</time>
      </trkpt>
      <trkpt lat="48.04456" lon="4.67689">
        <ele>261</ele>
        <time>2024-07-03T10:36:18Z</time>
      </trkpt>
      <trkpt lat="48.04377" lon="4.67573">
        <ele>257</ele>
        <time>2024-07-03T10:36:38Z</time>
      </trkpt>
      <trkpt lat="48.04257" lon="4.67068">
        <ele>249</ele>
        <time>2024-07-03T10:37:42Z</time>
      </trkpt>
      <trkpt lat="48.04257" lon="4.66988">
        <ele>248</ele>
        <time>2024-07-03T10:37:51Z</time>
      </trkpt>
      <trkpt lat="48.04249" lon="4.66889">
        <ele>248</ele>
        <time>2024-07-03T10:38:03Z</time>
      </trkpt>
      <trkpt lat="48.04253" lon="4.66878">
        <ele>248</ele>
        <time>2024-07-03T10:38:04Z</time>
      </trkpt>
      <trkpt lat="48.04623" lon="4.67013">
        <ele>297</ele>
        <time>2024-07-03T10:39:12Z</time>
      </trkpt>
      <trkpt lat="48.0478" lon="4.67241">
        <ele>309</ele>
        <time>2024-07-03T10:39:51Z</time>
      </trkpt>
      <trkpt lat="48.04813" lon="4.67268">
        <ele>311</ele>
        <time>2024-07-03T10:39:58Z</time>
      </trkpt>
      <trkpt lat="48.04861" lon="4.67281">
        <ele>315</ele>
        <time>2024-07-03T10:40:06Z</time>
      </trkpt>
      <trkpt lat="48.05151" lon="4.6723">
        <ele>326</ele>
        <time>2024-07-03T10:40:58Z</time>
      </trkpt>
      <trkpt lat="48.05364" lon="4.67243">
        <ele>328</ele>
        <time>2024-07-03T10:41:36Z</time>
      </trkpt>
      <trkpt lat="48.05931" lon="4.66882">
        <ele>360</ele>
        <time>2024-07-03T10:43:26Z</time>
      </trkpt>
      <trkpt lat="48.06498" lon="4.65326">
        <ele>339</ele>
        <time>2024-07-03T10:46:57Z</time>
      </trkpt>
      <trkpt lat="48.06484" lon="4.64858">
        <ele>331</ele>
        <time>2024-07-03T10:47:52Z</time>
      </trkpt>
      <trkpt lat="48.06826" lon="4.63484">
        <ele>316</ele>
        <time>2024-07-03T10:50:47Z</time>
      </trkpt>
      <trkpt lat="48.06838" lon="4.63336">
        <ele>315</ele>
        <time>2024-07-03T10:51:04Z</time>
      </trkpt>
      <trkpt lat="48.06805" lon="4.63313">
        <ele>314</ele>
        <time>2024-07-03T10:51:11Z</time>
      </trkpt>
      <trkpt lat="48.06955" lon="4.6301">
        <ele>313</ele>
        <time>2024-07-03T10:51:56Z</time>
      </trkpt>
      <trkpt lat="48.06495" lon="4.62427">
        <ele>329</ele>
        <time>2024-07-03T10:53:43Z</time>
      </trkpt>
      <trkpt lat="48.0645" lon="4.62105">
        <ele>330</ele>
        <time>2024-07-03T10:54:22Z</time>
      </trkpt>
      <trkpt lat="48.06725" lon="4.62059">
        <ele>315</ele>
        <time>2024-07-03T10:55:11Z</time>
      </trkpt>
      <trkpt lat="48.07267" lon="4.61206">
        <ele>304</ele>
        <time>2024-07-03T10:57:31Z</time>
      </trkpt>
      <trkpt lat="48.07747" lon="4.60481">
        <ele>306</ele>
        <time>2024-07-03T10:59:33Z</time>
      </trkpt>
      <trkpt lat="48.07767" lon="4.60505">
        <ele>305</ele>
        <time>2024-07-03T10:59:37Z</time>
      </trkpt>
      <trkpt lat="48.07865" lon="4.60334">
        <ele>313</ele>
        <time>2024-07-03T11:00:04Z</time>
      </trkpt>
      <trkpt lat="48.08046" lon="4.60471">
        <ele>312</ele>
        <time>2024-07-03T11:00:40Z</time>
      </trkpt>
      <trkpt lat="48.08113" lon="4.60393">
        <ele>315</ele>
        <time>2024-07-03T11:00:55Z</time>
      </trkpt>
      <trkpt lat="48.08248" lon="4.60305">
        <ele>317</ele>
        <time>2024-07-03T11:01:21Z</time>
      </trkpt>
      <trkpt lat="48.08392" lon="4.60093">
        <ele>318</ele>
        <time>2024-07-03T11:01:57Z</time>
      </trkpt>
      <trkpt lat="48.08547" lon="4.59799">
        <ele>314</ele>
        <time>2024-07-03T11:02:42Z</time>
      </trkpt>
      <trkpt lat="48.08606" lon="4.59672">
        <ele>313</ele>
        <time>2024-07-03T11:03:00Z</time>
      </trkpt>
      <trkpt lat="48.0865" lon="4.59616">
        <ele>312</ele>
        <time>2024-07-03T11:03:11Z</time>
      </trkpt>
      <trkpt lat="48.0885" lon="4.59341">
        <ele>318</ele>
        <time>2024-07-03T11:03:59Z</time>
      </trkpt>
      <trkpt lat="48.09023" lon="4.59123">
        <ele>319</ele>
        <time>2024-07-03T11:04:39Z</time>
      </trkpt>
      <trkpt lat="48.09097" lon="4.58994">
        <ele>320</ele>
        <time>2024-07-03T11:04:59Z</time>
      </trkpt>
      <trkpt lat="48.09134" lon="4.58919">
        <ele>323</ele>
        <time>2024-07-03T11:05:10Z</time>
      </trkpt>
      <trkpt lat="48.09144" lon="4.58892">
        <ele>324</ele>
        <time>2024-07-03T11:05:14Z</time>
      </trkpt>
      <trkpt lat="48.09146" lon="4.58864">
        <ele>325</ele>
        <time>2024-07-03T11:05:17Z</time>
      </trkpt>
      <trkpt lat="48.09134" lon="4.58769">
        <ele>326</ele>
        <time>2024-07-03T11:05:29Z</time>
      </trkpt>
      <trkpt lat="48.09138" lon="4.5868">
        <ele>329</ele>
        <time>2024-07-03T11:05:40Z</time>
      </trkpt>
      <trkpt lat="48.09156" lon="4.58571">
        <ele>333</ele>
        <time>2024-07-03T11:05:53Z</time>
      </trkpt>
      <trkpt lat="48.09213" lon="4.58369">
        <ele>340</ele>
        <time>2024-07-03T11:06:19Z</time>
      </trkpt>
      <trkpt lat="48.09245" lon="4.58214">
        <ele>341</ele>
        <time>2024-07-03T11:06:38Z</time>
      </trkpt>
      <trkpt lat="48.09259" lon="4.58129">
        <ele>341</ele>
        <time>2024-07-03T11:06:49Z</time>
      </trkpt>
      <trkpt lat="48.09269" lon="4.58101">
        <ele>342</ele>
        <time>2024-07-03T11:06:52Z</time>
      </trkpt>
      <trkpt lat="48.09282" lon="4.5809">
        <ele>342</ele>
        <time>2024-07-03T11:06:55Z</time>
      </trkpt>
      <trkpt lat="48.09244" lon="4.57786">
        <ele>340</ele>
        <time>2024-07-03T11:07:32Z</time>
      </trkpt>
      <trkpt lat="48.09107" lon="4.57262">
        <ele>336</ele>
        <time>2024-07-03T11:08:39Z</time>
      </trkpt>
      <trkpt lat="48.09112" lon="4.57184">
        <ele>337</ele>
        <time>2024-07-03T11:08:48Z</time>
      </trkpt>
      <trkpt lat="48.09383" lon="4.57128">
        <ele>337</ele>
        <time>2024-07-03T11:09:37Z</time>
      </trkpt>
      <trkpt lat="48.10082" lon="4.57144">
        <ele>257</ele>
        <time>2024-07-03T11:11:41Z</time>
      </trkpt>
      <trkpt lat="48.10088" lon="4.57137">
        <ele>257</ele>
        <time>2024-07-03T11:11:42Z</time>
      </trkpt>
      <trkpt lat="48.101" lon="4.5716">
        <ele>259</ele>
        <time>2024-07-03T11:11:46Z</time>
      </trkpt>
      <trkpt lat="48.10116" lon="4.57212">
        <ele>262</ele>
        <time>2024-07-03T11:11:53Z</time>
      </trkpt>
      <trkpt lat="48.10172" lon="4.57318">
        <ele>268</ele>
        <time>2024-07-03T11:12:09Z</time>
      </trkpt>
      <trkpt lat="48.10189" lon="4.57376">
        <ele>271</ele>
        <time>2024-07-03T11:12:16Z</time>
      </trkpt>
      <trkpt lat="48.10194" lon="4.57417">
        <ele>273</ele>
        <time>2024-07-03T11:12:21Z</time>
      </trkpt>
      <trkpt lat="48.10194" lon="4.57503">
        <ele>275</ele>
        <time>2024-07-03T11:12:31Z</time>
      </trkpt>
      <trkpt lat="48.10185" lon="4.5762">
        <ele>277</ele>
        <time>2024-07-03T11:12:45Z</time>
      </trkpt>
      <trkpt lat="48.10186" lon="4.57641">
        <ele>278</ele>
        <time>2024-07-03T11:12:48Z</time>
      </trkpt>
      <trkpt lat="48.10193" lon="4.57663">
        <ele>280</ele>
        <time>2024-07-03T11:12:51Z</time>
      </trkpt>
      <trkpt lat="48.10238" lon="4.57743">
        <ele>286</ele>
        <time>2024-07-03T11:13:03Z</time>
      </trkpt>
      <trkpt lat="48.1025" lon="4.57785">
        <ele>287</ele>
        <time>2024-07-03T11:13:09Z</time>
      </trkpt>
      <trkpt lat="48.10266" lon="4.57878">
        <ele>286</ele>
        <time>2024-07-03T11:13:20Z</time>
      </trkpt>
      <trkpt lat="48.10271" lon="4.57893">
        <ele>286</ele>
        <time>2024-07-03T11:13:22Z</time>
      </trkpt>
      <trkpt lat="48.10281" lon="4.57902">
        <ele>288</ele>
        <time>2024-07-03T11:13:24Z</time>
      </trkpt>
      <trkpt lat="48.10293" lon="4.57904">
        <ele>290</ele>
        <time>2024-07-03T11:13:26Z</time>
      </trkpt>
      <trkpt lat="48.10308" lon="4.57894">
        <ele>294</ele>
        <time>2024-07-03T11:13:29Z</time>
      </trkpt>
      <trkpt lat="48.10316" lon="4.5788">
        <ele>296</ele>
        <time>2024-07-03T11:13:31Z</time>
      </trkpt>
      <trkpt lat="48.10315" lon="4.57857">
        <ele>297</ele>
        <time>2024-07-03T11:13:34Z</time>
      </trkpt>
      <trkpt lat="48.10303" lon="4.57765">
        <ele>298</ele>
        <time>2024-07-03T11:13:45Z</time>
      </trkpt>
      <trkpt lat="48.10309" lon="4.5769">
        <ele>300</ele>
        <time>2024-07-03T11:13:54Z</time>
      </trkpt>
      <trkpt lat="48.10319" lon="4.57614">
        <ele>301</ele>
        <time>2024-07-03T11:14:03Z</time>
      </trkpt>
      <trkpt lat="48.10348" lon="4.57534">
        <ele>304</ele>
        <time>2024-07-03T11:14:14Z</time>
      </trkpt>
      <trkpt lat="48.10411" lon="4.57437">
        <ele>313</ele>
        <time>2024-07-03T11:14:30Z</time>
      </trkpt>
      <trkpt lat="48.10461" lon="4.5728">
        <ele>315</ele>
        <time>2024-07-03T11:14:51Z</time>
      </trkpt>
      <trkpt lat="48.10476" lon="4.5726">
        <ele>317</ele>
        <time>2024-07-03T11:14:55Z</time>
      </trkpt>
      <trkpt lat="48.10495" lon="4.57257">
        <ele>319</ele>
        <time>2024-07-03T11:14:58Z</time>
      </trkpt>
      <trkpt lat="48.10655" lon="4.57366">
        <ele>333</ele>
        <time>2024-07-03T11:15:29Z</time>
      </trkpt>
      <trkpt lat="48.10686" lon="4.57375">
        <ele>333</ele>
        <time>2024-07-03T11:15:35Z</time>
      </trkpt>
      <trkpt lat="48.11082" lon="4.57533">
        <ele>327</ele>
        <time>2024-07-03T11:16:48Z</time>
      </trkpt>
      <trkpt lat="48.11118" lon="4.5754">
        <ele>328</ele>
        <time>2024-07-03T11:16:54Z</time>
      </trkpt>
      <trkpt lat="48.11338" lon="4.57746">
        <ele>333</ele>
        <time>2024-07-03T11:17:40Z</time>
      </trkpt>
      <trkpt lat="48.11327" lon="4.5776">
        <ele>333</ele>
        <time>2024-07-03T11:17:43Z</time>
      </trkpt>
      <trkpt lat="48.11615" lon="4.57416">
        <ele>330</ele>
        <time>2024-07-03T11:18:49Z</time>
      </trkpt>
      <trkpt lat="48.11758" lon="4.56638">
        <ele>328</ele>
        <time>2024-07-03T11:20:24Z</time>
      </trkpt>
      <trkpt lat="48.11766" lon="4.56629">
        <ele>329</ele>
        <time>2024-07-03T11:20:26Z</time>
      </trkpt>
      <trkpt lat="48.11882" lon="4.56647">
        <ele>333</ele>
        <time>2024-07-03T11:20:47Z</time>
      </trkpt>
      <trkpt lat="48.1201" lon="4.56554">
        <ele>332</ele>
        <time>2024-07-03T11:21:12Z</time>
      </trkpt>
      <trkpt lat="48.12066" lon="4.56546">
        <ele>330</ele>
        <time>2024-07-03T11:21:22Z</time>
      </trkpt>
      <trkpt lat="48.12356" lon="4.56599">
        <ele>327</ele>
        <time>2024-07-03T11:22:14Z</time>
      </trkpt>
      <trkpt lat="48.12559" lon="4.56578">
        <ele>324</ele>
        <time>2024-07-03T11:22:50Z</time>
      </trkpt>
      <trkpt lat="48.12778" lon="4.56616">
        <ele>327</ele>
        <time>2024-07-03T11:23:30Z</time>
      </trkpt>
      <trkpt lat="48.13174" lon="4.56716">
        <ele>310</ele>
        <time>2024-07-03T11:24:41Z</time>
      </trkpt>
      <trkpt lat="48.13517" lon="4.56642">
        <ele>296</ele>
        <time>2024-07-03T11:25:43Z</time>
      </trkpt>
      <trkpt lat="48.13783" lon="4.56789">
        <ele>256</ele>
        <time>2024-07-03T11:26:33Z</time>
      </trkpt>
      <trkpt lat="48.13967" lon="4.56927">
        <ele>245</ele>
        <time>2024-07-03T11:27:10Z</time>
      </trkpt>
      <trkpt lat="48.13975" lon="4.5693">
        <ele>245</ele>
        <time>2024-07-03T11:27:11Z</time>
      </trkpt>
      <trkpt lat="48.14002" lon="4.56929">
        <ele>244</ele>
        <time>2024-07-03T11:27:16Z</time>
      </trkpt>
      <trkpt lat="48.1408" lon="4.56916">
        <ele>238</ele>
        <time>2024-07-03T11:27:30Z</time>
      </trkpt>
      <trkpt lat="48.14184" lon="4.56918">
        <ele>233</ele>
        <time>2024-07-03T11:27:49Z</time>
      </trkpt>
      <trkpt lat="48.14254" lon="4.56886">
        <ele>229</ele>
        <time>2024-07-03T11:28:02Z</time>
      </trkpt>
      <trkpt lat="48.14287" lon="4.56863">
        <ele>228</ele>
        <time>2024-07-03T11:28:08Z</time>
      </trkpt>
      <trkpt lat="48.14549" lon="4.56959">
        <ele>230</ele>
        <time>2024-07-03T11:28:56Z</time>
      </trkpt>
      <trkpt lat="48.14644" lon="4.57486">
        <ele>256</ele>
        <time>2024-07-03T11:30:01Z</time>
      </trkpt>
      <trkpt lat="48.14752" lon="4.5777">
        <ele>271</ele>
        <time>2024-07-03T11:30:40Z</time>
      </trkpt>
      <trkpt lat="48.14887" lon="4.58115">
        <ele>296</ele>
        <time>2024-07-03T11:31:27Z</time>
      </trkpt>
      <trkpt lat="48.14996" lon="4.58561">
        <ele>296</ele>
        <time>2024-07-03T11:32:24Z</time>
      </trkpt>
      <trkpt lat="48.1506" lon="4.58558">
        <ele>299</ele>
        <time>2024-07-03T11:32:35Z</time>
      </trkpt>
      <trkpt lat="48.15081" lon="4.58568">
        <ele>299</ele>
        <time>2024-07-03T11:32:39Z</time>
      </trkpt>
      <trkpt lat="48.15102" lon="4.58602">
        <ele>300</ele>
        <time>2024-07-03T11:32:44Z</time>
      </trkpt>
      <trkpt lat="48.15114" lon="4.58617">
        <ele>300</ele>
        <time>2024-07-03T11:32:47Z</time>
      </trkpt>
      <trkpt lat="48.15179" lon="4.58661">
        <ele>303</ele>
        <time>2024-07-03T11:33:00Z</time>
      </trkpt>
      <trkpt lat="48.15298" lon="4.5873">
        <ele>305</ele>
        <time>2024-07-03T11:33:23Z</time>
      </trkpt>
      <trkpt lat="48.15358" lon="4.58776">
        <ele>305</ele>
        <time>2024-07-03T11:33:35Z</time>
      </trkpt>
      <trkpt lat="48.15387" lon="4.58807">
        <ele>304</ele>
        <time>2024-07-03T11:33:41Z</time>
      </trkpt>
      <trkpt lat="48.15445" lon="4.58887">
        <ele>306</ele>
        <time>2024-07-03T11:33:55Z</time>
      </trkpt>
      <trkpt lat="48.15464" lon="4.58919">
        <ele>307</ele>
        <time>2024-07-03T11:34:00Z</time>
      </trkpt>
      <trkpt lat="48.15531" lon="4.59048">
        <ele>312</ele>
        <time>2024-07-03T11:34:19Z</time>
      </trkpt>
      <trkpt lat="48.15623" lon="4.59194">
        <ele>311</ele>
        <time>2024-07-03T11:34:43Z</time>
      </trkpt>
      <trkpt lat="48.15849" lon="4.59797">
        <ele>309</ele>
        <time>2024-07-03T11:36:05Z</time>
      </trkpt>
      <trkpt lat="48.16309" lon="4.60183">
        <ele>311</ele>
        <time>2024-07-03T11:37:39Z</time>
      </trkpt>
      <trkpt lat="48.16634" lon="4.60872">
        <ele>289</ele>
        <time>2024-07-03T11:39:19Z</time>
      </trkpt>
      <trkpt lat="48.16958" lon="4.61196">
        <ele>240</ele>
        <time>2024-07-03T11:40:29Z</time>
      </trkpt>
      <trkpt lat="48.1701" lon="4.61239">
        <ele>236</ele>
        <time>2024-07-03T11:40:39Z</time>
      </trkpt>
      <trkpt lat="48.17027" lon="4.61249">
        <ele>234</ele>
        <time>2024-07-03T11:40:42Z</time>
      </trkpt>
      <trkpt lat="48.1708" lon="4.61291">
        <ele>228</ele>
        <time>2024-07-03T11:40:53Z</time>
      </trkpt>
      <trkpt lat="48.17121" lon="4.61561">
        <ele>219</ele>
        <time>2024-07-03T11:41:26Z</time>
      </trkpt>
      <trkpt lat="48.1711" lon="4.61637">
        <ele>218</ele>
        <time>2024-07-03T11:41:35Z</time>
      </trkpt>
      <trkpt lat="48.1713" lon="4.61656">
        <ele>217</ele>
        <time>2024-07-03T11:41:39Z</time>
      </trkpt>
      <trkpt lat="48.17149" lon="4.61682">
        <ele>217</ele>
        <time>2024-07-03T11:41:44Z</time>
      </trkpt>
      <trkpt lat="48.17188" lon="4.61692">
        <ele>218</ele>
        <time>2024-07-03T11:41:51Z</time>
      </trkpt>
      <trkpt lat="48.17212" lon="4.61695">
        <ele>219</ele>
        <time>2024-07-03T11:41:55Z</time>
      </trkpt>
      <trkpt lat="48.17228" lon="4.61689">
        <ele>219</ele>
        <time>2024-07-03T11:41:58Z</time>
      </trkpt>
      <trkpt lat="48.17242" lon="4.61674">
        <ele>220</ele>
        <time>2024-07-03T11:42:01Z</time>
      </trkpt>
      <trkpt lat="48.17367" lon="4.61459">
        <ele>227</ele>
        <time>2024-07-03T11:42:35Z</time>
      </trkpt>
      <trkpt lat="48.17574" lon="4.61569">
        <ele>244</ele>
        <time>2024-07-03T11:43:14Z</time>
      </trkpt>
      <trkpt lat="48.17831" lon="4.61632">
        <ele>281</ele>
        <time>2024-07-03T11:44:00Z</time>
      </trkpt>
      <trkpt lat="48.1796" lon="4.61781">
        <ele>294</ele>
        <time>2024-07-03T11:44:29Z</time>
      </trkpt>
      <trkpt lat="48.18157" lon="4.61856">
        <ele>308</ele>
        <time>2024-07-03T11:45:06Z</time>
      </trkpt>
      <trkpt lat="48.18322" lon="4.61845">
        <ele>304</ele>
        <time>2024-07-03T11:45:35Z</time>
      </trkpt>
      <trkpt lat="48.18514" lon="4.61779">
        <ele>290</ele>
        <time>2024-07-03T11:46:10Z</time>
      </trkpt>
      <trkpt lat="48.18743" lon="4.6187">
        <ele>286</ele>
        <time>2024-07-03T11:46:52Z</time>
      </trkpt>
      <trkpt lat="48.1908" lon="4.61928">
        <ele>277</ele>
        <time>2024-07-03T11:47:53Z</time>
      </trkpt>
      <trkpt lat="48.19275" lon="4.62141">
        <ele>264</ele>
        <time>2024-07-03T11:48:35Z</time>
      </trkpt>
      <trkpt lat="48.19517" lon="4.62252">
        <ele>249</ele>
        <time>2024-07-03T11:49:20Z</time>
      </trkpt>
      <trkpt lat="48.19629" lon="4.62371">
        <ele>224</ele>
        <time>2024-07-03T11:49:45Z</time>
      </trkpt>
      <trkpt lat="48.19803" lon="4.62355">
        <ele>210</ele>
        <time>2024-07-03T11:50:16Z</time>
      </trkpt>
      <trkpt lat="48.2006" lon="4.6243">
        <ele>197</ele>
        <time>2024-07-03T11:51:03Z</time>
      </trkpt>
      <trkpt lat="48.2019" lon="4.62336">
        <ele>201</ele>
        <time>2024-07-03T11:51:28Z</time>
      </trkpt>
      <trkpt lat="48.20261" lon="4.62352">
        <ele>200</ele>
        <time>2024-07-03T11:51:41Z</time>
      </trkpt>
      <trkpt lat="48.20307" lon="4.62124">
        <ele>199</ele>
        <time>2024-07-03T11:52:09Z</time>
      </trkpt>
      <trkpt lat="48.20354" lon="4.6206">
        <ele>203</ele>
        <time>2024-07-03T11:52:21Z</time>
      </trkpt>
      <trkpt lat="48.20468" lon="4.62106">
        <ele>208</ele>
        <time>2024-07-03T11:52:42Z</time>
      </trkpt>
      <trkpt lat="48.20455" lon="4.61907">
        <ele>226</ele>
        <time>2024-07-03T11:53:05Z</time>
      </trkpt>
      <trkpt lat="48.20538" lon="4.61891">
        <ele>234</ele>
        <time>2024-07-03T11:53:20Z</time>
      </trkpt>
      <trkpt lat="48.20593" lon="4.61509">
        <ele>252</ele>
        <time>2024-07-03T11:54:06Z</time>
      </trkpt>
      <trkpt lat="48.20749" lon="4.61126">
        <ele>258</ele>
        <time>2024-07-03T11:55:00Z</time>
      </trkpt>
      <trkpt lat="48.20763" lon="4.60958">
        <ele>259</ele>
        <time>2024-07-03T11:55:20Z</time>
      </trkpt>
      <trkpt lat="48.20875" lon="4.60933">
        <ele>260</ele>
        <time>2024-07-03T11:55:40Z</time>
      </trkpt>
      <trkpt lat="48.20916" lon="4.60863">
        <ele>260</ele>
        <time>2024-07-03T11:55:51Z</time>
      </trkpt>
      <trkpt lat="48.20966" lon="4.60818">
        <ele>259</ele>
        <time>2024-07-03T11:56:01Z</time>
      </trkpt>
      <trkpt lat="48.21014" lon="4.60744">
        <ele>255</ele>
        <time>2024-07-03T11:56:14Z</time>
      </trkpt>
      <trkpt lat="48.21046" lon="4.60666">
        <ele>250</ele>
        <time>2024-07-03T11:56:24Z</time>
      </trkpt>
      <trkpt lat="48.21098" lon="4.60573">
        <ele>244</ele>
        <time>2024-07-03T11:56:39Z</time>
      </trkpt>
      <trkpt lat="48.21157" lon="4.60516">
        <ele>239</ele>
        <time>2024-07-03T11:56:51Z</time>
      </trkpt>
      <trkpt lat="48.21212" lon="4.60481">
        <ele>232</ele>
        <time>2024-07-03T11:57:02Z</time>
      </trkpt>
      <trkpt lat="48.2128" lon="4.60446">
        <ele>223</ele>
        <time>2024-07-03T11:57:15Z</time>
      </trkpt>
      <trkpt lat="48.21513" lon="4.60134">
        <ele>205</ele>
        <time>2024-07-03T11:58:10Z</time>
      </trkpt>
      <trkpt lat="48.21695" lon="4.61096">
        <ele>209</ele>
        <time>2024-07-03T12:00:09Z</time>
      </trkpt>
      <trkpt lat="48.21715" lon="4.61296">
        <ele>214</ele>
        <time>2024-07-03T12:00:33Z</time>
      </trkpt>
      <trkpt lat="48.21732" lon="4.614">
        <ele>213</ele>
        <time>2024-07-03T12:00:46Z</time>
      </trkpt>
      <trkpt lat="48.21768" lon="4.61556">
        <ele>213</ele>
        <time>2024-07-03T12:01:05Z</time>
      </trkpt>
      <trkpt lat="48.21773" lon="4.61649">
        <ele>212</ele>
        <time>2024-07-03T12:01:16Z</time>
      </trkpt>
      <trkpt lat="48.21793" lon="4.61778">
        <ele>211</ele>
        <time>2024-07-03T12:01:32Z</time>
      </trkpt>
      <trkpt lat="48.21814" lon="4.61862">
        <ele>208</ele>
        <time>2024-07-03T12:01:43Z</time>
      </trkpt>
      <trkpt lat="48.21888" lon="4.62014">
        <ele>201</ele>
        <time>2024-07-03T12:02:05Z</time>
      </trkpt>
      <trkpt lat="48.21901" lon="4.62028">
        <ele>200</ele>
        <time>2024-07-03T12:02:08Z</time>
      </trkpt>
      <trkpt lat="48.22018" lon="4.62094">
        <ele>197</ele>
        <time>2024-07-03T12:02:30Z</time>
      </trkpt>
      <trkpt lat="48.22108" lon="4.6212">
        <ele>197</ele>
        <time>2024-07-03T12:02:46Z</time>
      </trkpt>
      <trkpt lat="48.22181" lon="4.62117">
        <ele>198</ele>
        <time>2024-07-03T12:02:59Z</time>
      </trkpt>
      <trkpt lat="48.22365" lon="4.62038">
        <ele>203</ele>
        <time>2024-07-03T12:03:33Z</time>
      </trkpt>
      <trkpt lat="48.22502" lon="4.61949">
        <ele>208</ele>
        <time>2024-07-03T12:04:00Z</time>
      </trkpt>
      <trkpt lat="48.2257" lon="4.619">
        <ele>209</ele>
        <time>2024-07-03T12:04:13Z</time>
      </trkpt>
      <trkpt lat="48.22706" lon="4.61848">
        <ele>195</ele>
        <time>2024-07-03T12:04:38Z</time>
      </trkpt>
      <trkpt lat="48.22689" lon="4.61968">
        <ele>183</ele>
        <time>2024-07-03T12:04:53Z</time>
      </trkpt>
      <trkpt lat="48.2267" lon="4.62059">
        <ele>179</ele>
        <time>2024-07-03T12:05:04Z</time>
      </trkpt>
      <trkpt lat="48.22608" lon="4.62541">
        <ele>176</ele>
        <time>2024-07-03T12:06:02Z</time>
      </trkpt>
      <trkpt lat="48.22605" lon="4.62583">
        <ele>177</ele>
        <time>2024-07-03T12:06:07Z</time>
      </trkpt>
      <trkpt lat="48.22563" lon="4.62621">
        <ele>177</ele>
        <time>2024-07-03T12:06:16Z</time>
      </trkpt>
      <trkpt lat="48.22603" lon="4.62604">
        <ele>177</ele>
        <time>2024-07-03T12:06:23Z</time>
      </trkpt>
      <trkpt lat="48.22596" lon="4.62741">
        <ele>178</ele>
        <time>2024-07-03T12:06:40Z</time>
      </trkpt>
      <trkpt lat="48.22599" lon="4.63155">
        <ele>211</ele>
        <time>2024-07-03T12:07:29Z</time>
      </trkpt>
      <trkpt lat="48.22659" lon="4.63395">
        <ele>234</ele>
        <time>2024-07-03T12:07:59Z</time>
      </trkpt>
      <trkpt lat="48.22723" lon="4.63579">
        <ele>251</ele>
        <time>2024-07-03T12:08:24Z</time>
      </trkpt>
      <trkpt lat="48.22737" lon="4.63634">
        <ele>255</ele>
        <time>2024-07-03T12:08:31Z</time>
      </trkpt>
      <trkpt lat="48.22697" lon="4.6384">
        <ele>268</ele>
        <time>2024-07-03T12:08:56Z</time>
      </trkpt>
      <trkpt lat="48.22466" lon="4.64292">
        <ele>284</ele>
        <time>2024-07-03T12:10:04Z</time>
      </trkpt>
      <trkpt lat="48.22376" lon="4.64625">
        <ele>293</ele>
        <time>2024-07-03T12:10:46Z</time>
      </trkpt>
      <trkpt lat="48.22333" lon="4.648">
        <ele>289</ele>
        <time>2024-07-03T12:11:08Z</time>
      </trkpt>
      <trkpt lat="48.22303" lon="4.64969">
        <ele>279</ele>
        <time>2024-07-03T12:11:29Z</time>
      </trkpt>
      <trkpt lat="48.22262" lon="4.65234">
        <ele>283</ele>
        <time>2024-07-03T12:12:01Z</time>
      </trkpt>
      <trkpt lat="48.22263" lon="4.65224">
        <ele>282</ele>
        <time>2024-07-03T12:12:03Z</time>
      </trkpt>
      <trkpt lat="48.22247" lon="4.65384">
        <ele>292</ele>
        <time>2024-07-03T12:12:22Z</time>
      </trkpt>
      <trkpt lat="48.2214" lon="4.66">
        <ele>297</ele>
        <time>2024-07-03T12:13:37Z</time>
      </trkpt>
      <trkpt lat="48.22149" lon="4.66132">
        <ele>293</ele>
        <time>2024-07-03T12:13:53Z</time>
      </trkpt>
      <trkpt lat="48.22165" lon="4.66255">
        <ele>298</ele>
        <time>2024-07-03T12:14:08Z</time>
      </trkpt>
      <trkpt lat="48.22179" lon="4.66441">
        <ele>308</ele>
        <time>2024-07-03T12:14:30Z</time>
      </trkpt>
      <trkpt lat="48.22218" lon="4.66545">
        <ele>309</ele>
        <time>2024-07-03T12:14:44Z</time>
      </trkpt>
      <trkpt lat="48.22361" lon="4.66841">
        <ele>303</ele>
        <time>2024-07-03T12:15:27Z</time>
      </trkpt>
      <trkpt lat="48.22478" lon="4.67152">
        <ele>308</ele>
        <time>2024-07-03T12:16:10Z</time>
      </trkpt>
      <trkpt lat="48.22746" lon="4.67654">
        <ele>303</ele>
        <time>2024-07-03T12:17:26Z</time>
      </trkpt>
      <trkpt lat="48.22802" lon="4.67996">
        <ele>295</ele>
        <time>2024-07-03T12:18:08Z</time>
      </trkpt>
      <trkpt lat="48.22824" lon="4.68164">
        <ele>279</ele>
        <time>2024-07-03T12:18:28Z</time>
      </trkpt>
      <trkpt lat="48.22844" lon="4.68178">
        <ele>277</ele>
        <time>2024-07-03T12:18:32Z</time>
      </trkpt>
      <trkpt lat="48.22902" lon="4.68147">
        <ele>280</ele>
        <time>2024-07-03T12:18:43Z</time>
      </trkpt>
      <trkpt lat="48.22925" lon="4.68155">
        <ele>279</ele>
        <time>2024-07-03T12:18:47Z</time>
      </trkpt>
      <trkpt lat="48.22945" lon="4.68182">
        <ele>277</ele>
        <time>2024-07-03T12:18:52Z</time>
      </trkpt>
      <trkpt lat="48.22981" lon="4.68291">
        <ele>265</ele>
        <time>2024-07-03T12:19:06Z</time>
      </trkpt>
      <trkpt lat="48.22998" lon="4.68454">
        <ele>248</ele>
        <time>2024-07-03T12:19:26Z</time>
      </trkpt>
      <trkpt lat="48.22995" lon="4.68512">
        <ele>239</ele>
        <time>2024-07-03T12:19:33Z</time>
      </trkpt>
      <trkpt lat="48.23016" lon="4.68635">
        <ele>226</ele>
        <time>2024-07-03T12:19:48Z</time>
      </trkpt>
      <trkpt lat="48.23033" lon="4.68792">
        <ele>207</ele>
        <time>2024-07-03T12:20:07Z</time>
      </trkpt>
      <trkpt lat="48.23049" lon="4.68871">
        <ele>198</ele>
        <time>2024-07-03T12:20:17Z</time>
      </trkpt>
      <trkpt lat="48.23066" lon="4.68927">
        <ele>191</ele>
        <time>2024-07-03T12:20:24Z</time>
      </trkpt>
      <trkpt lat="48.23082" lon="4.68964">
        <ele>188</ele>
        <time>2024-07-03T12:20:29Z</time>
      </trkpt>
      <trkpt lat="48.23096" lon="4.68988">
        <ele>184</ele>
        <time>2024-07-03T12:20:33Z</time>
      </trkpt>
      <trkpt lat="48.23144" lon="4.69056">
        <ele>177</ele>
        <time>2024-07-03T12:20:45Z</time>
      </trkpt>
      <trkpt lat="48.23157" lon="4.69085">
        <ele>174</ele>
        <time>2024-07-03T12:20:49Z</time>
      </trkpt>
      <trkpt lat="48.23172" lon="4.6915">
        <ele>172</ele>
        <time>2024-07-03T12:20:57Z</time>
      </trkpt>
      <trkpt lat="48.23146" lon="4.69246">
        <ele>171</ele>
        <time>2024-07-03T12:21:09Z</time>
      </trkpt>
      <trkpt lat="48.2314" lon="4.69281">
        <ele>171</ele>
        <time>2024-07-03T12:21:13Z</time>
      </trkpt>
      <trkpt lat="48.23137" lon="4.69375">
        <ele>171</ele>
        <time>2024-07-03T12:21:25Z</time>
      </trkpt>
      <trkpt lat="48.23143" lon="4.69466">
        <ele>171</ele>
        <time>2024-07-03T12:21:35Z</time>
      </trkpt>
      <trkpt lat="48.23157" lon="4.69568">
        <ele>169</ele>
        <time>2024-07-03T12:21:48Z</time>
      </trkpt>
      <trkpt lat="48.23157" lon="4.69588">
        <ele>168</ele>
        <time>2024-07-03T12:21:50Z</time>
      </trkpt>
      <trkpt lat="48.23141" lon="4.69723">
        <ele>167</ele>
        <time>2024-07-03T12:22:06Z</time>
      </trkpt>
      <trkpt lat="48.23123" lon="4.69791">
        <ele>166</ele>
        <time>2024-07-03T12:22:15Z</time>
      </trkpt>
      <trkpt lat="48.23082" lon="4.69854">
        <ele>166</ele>
        <time>2024-07-03T12:22:26Z</time>
      </trkpt>
      <trkpt lat="48.23079" lon="4.69862">
        <ele>166</ele>
        <time>2024-07-03T12:22:27Z</time>
      </trkpt>
      <trkpt lat="48.23069" lon="4.69936">
        <ele>166</ele>
        <time>2024-07-03T12:22:36Z</time>
      </trkpt>
      <trkpt lat="48.23005" lon="4.70179">
        <ele>171</ele>
        <time>2024-07-03T12:23:07Z</time>
      </trkpt>
      <trkpt lat="48.22981" lon="4.70308">
        <ele>170</ele>
        <time>2024-07-03T12:23:22Z</time>
      </trkpt>
      <trkpt lat="48.22982" lon="4.70322">
        <ele>170</ele>
        <time>2024-07-03T12:23:24Z</time>
      </trkpt>
      <trkpt lat="48.2303" lon="4.70388">
        <ele>167</ele>
        <time>2024-07-03T12:23:36Z</time>
      </trkpt>
      <trkpt lat="48.23059" lon="4.70418">
        <ele>166</ele>
        <time>2024-07-03T12:23:42Z</time>
      </trkpt>
      <trkpt lat="48.23066" lon="4.70422">
        <ele>166</ele>
        <time>2024-07-03T12:23:43Z</time>
      </trkpt>
      <trkpt lat="48.2314" lon="4.70442">
        <ele>167</ele>
        <time>2024-07-03T12:23:57Z</time>
      </trkpt>
      <trkpt lat="48.23202" lon="4.70498">
        <ele>168</ele>
        <time>2024-07-03T12:24:09Z</time>
      </trkpt>
      <trkpt lat="48.23291" lon="4.70593">
        <ele>170</ele>
        <time>2024-07-03T12:24:29Z</time>
      </trkpt>
      <trkpt lat="48.2333" lon="4.70644">
        <ele>170</ele>
        <time>2024-07-03T12:24:38Z</time>
        <extensions>
          <visugpx:TrkExtension xmlns:visugpx="https://www.visugpx.com/editgpx/">
            <visugpx:node>1</visugpx:node>
            </visugpx:TrkExtension>
        </extensions>
      </trkpt>
    </trkseg>
  </trk>
</gpx>